createdAt,value
2022-11-24T00:03:00.679Z,77.21
2022-11-24T00:08:02.282Z,77.75
2022-11-24T00:13:03.877Z,77.02
2022-11-24T00:18:05.659Z,77.27
2022-11-24T00:23:07.964Z,77.82
2022-11-24T00:28:09.522Z,77.41
2022-11-24T00:33:10.911Z,78.25
2022-11-24T00:38:12.298Z,77.55
2022-11-24T00:43:13.684Z,78.16
2022-11-24T00:48:15.101Z,77.93
2022-11-24T00:53:16.416Z,78.06
2022-11-24T00:58:17.903Z,78.31
2022-11-24T01:03:20.651Z,79.01
2022-11-24T01:08:21.976Z,78.98
2022-11-24T01:13:23.317Z,79.10
2022-11-24T01:18:24.649Z,79.25
2022-11-24T01:23:25.994Z,79.24
2022-11-24T01:28:27.322Z,79.07
2022-11-24T01:33:28.666Z,79.15
2022-11-24T01:38:30.078Z,78.85
2022-11-24T01:43:32.327Z,78.90
2022-11-24T01:48:40.416Z,79.34
2022-11-24T01:53:45.814Z,79.26
2022-11-24T02:11:06.017Z,78.54
2022-11-24T02:16:10.402Z,78.73
2022-11-24T02:21:14.830Z,78.61
2022-11-24T02:26:43.053Z,78.19
2022-11-24T02:31:48.970Z,78.66
2022-11-24T02:36:50.635Z,78.59
2022-11-24T02:47:12.552Z,78.24
2022-11-24T02:52:14.320Z,78.54
2022-11-24T02:57:15.828Z,78.60
2022-11-24T03:02:17.355Z,78.11
2022-11-24T03:07:19.319Z,78.32
2022-11-24T03:12:20.851Z,78.64
2022-11-24T03:17:22.420Z,78.68
2022-11-24T03:22:23.957Z,78.84
2022-11-24T03:27:25.540Z,78.96
2022-11-24T03:32:27.073Z,78.34
2022-11-24T03:37:28.545Z,78.59
2022-11-24T03:42:30.094Z,78.71
2022-11-24T03:47:32.894Z,78.01
2022-11-24T03:52:34.419Z,78.18
2022-11-24T03:57:35.903Z,77.46
2022-11-24T04:02:38.140Z,77.74
2022-11-24T04:07:39.803Z,78.53
2022-11-24T04:12:44.055Z,78.19
2022-11-24T04:17:46.505Z,77.97
2022-11-24T04:22:50.452Z,77.97
2022-11-24T04:27:53.761Z,78.33
2022-11-24T04:32:55.407Z,78.11
2022-11-24T04:37:56.926Z,78.13
2022-11-24T04:42:58.588Z,78.39
2022-11-24T04:48:00.194Z,78.83
2022-11-24T04:53:01.701Z,78.81
2022-11-24T04:58:03.465Z,78.64
2022-11-24T05:03:07.058Z,78.58
2022-11-24T05:08:11.153Z,78.81
2022-11-24T05:13:14.976Z,79.02
2022-11-24T05:18:17.156Z,79.17
2022-11-24T05:23:18.918Z,79.08
2022-11-24T05:28:20.328Z,79.00
2022-11-24T05:33:22.976Z,78.93
2022-11-24T05:38:24.373Z,78.79
2022-11-24T05:43:25.736Z,78.92
2022-11-24T05:48:27.808Z,78.96
2022-11-24T05:53:29.191Z,78.89
2022-11-24T05:58:30.619Z,78.60
2022-11-24T06:03:31.972Z,78.54
2022-11-24T06:08:34.202Z,79.12
2022-11-24T06:13:35.596Z,78.89
2022-11-24T06:18:37.336Z,79.26
2022-11-24T06:23:39.428Z,78.89
2022-11-24T06:28:40.866Z,78.73
2022-11-24T06:33:42.289Z,78.76
2022-11-24T06:38:43.623Z,78.72
2022-11-24T06:43:45.482Z,78.18
2022-11-24T06:48:47.134Z,78.37
2022-11-24T06:53:48.537Z,78.39
2022-11-24T06:58:52.127Z,78.43
2022-11-24T07:03:54.774Z,78.49
2022-11-24T07:08:56.139Z,78.88
2022-11-24T07:14:00.120Z,79.02
2022-11-24T07:19:02.071Z,79.44
2022-11-24T07:24:03.644Z,79.23
2022-11-24T07:29:05.353Z,79.27
2022-11-24T07:34:06.722Z,79.42
2022-11-24T07:39:08.171Z,79.18
2022-11-24T07:44:09.532Z,79.70
2022-11-24T07:49:10.887Z,79.51
2022-11-24T07:54:12.270Z,80.02
2022-11-24T07:59:13.713Z,80.22
2022-11-24T08:04:15.047Z,80.35
2022-11-24T08:09:16.410Z,80.51
2022-11-24T08:14:17.746Z,80.43
2022-11-24T08:19:19.098Z,80.32
2022-11-24T08:24:20.464Z,80.63
2022-11-24T08:29:21.799Z,80.28
2022-11-24T08:34:24.253Z,80.41
2022-11-24T08:39:25.628Z,80.43
2022-11-24T08:44:28.677Z,80.30
2022-11-24T08:49:30.014Z,80.59
2022-11-24T08:54:31.926Z,80.47
2022-11-24T08:59:33.415Z,80.48
2022-11-24T09:04:35.204Z,80.52
2022-11-24T09:09:36.808Z,80.25
2022-11-24T09:14:38.264Z,80.21
2022-11-24T09:19:39.618Z,79.92
2022-11-24T09:24:41.108Z,79.80
2022-11-24T09:29:42.445Z,79.80
2022-11-24T09:34:43.863Z,79.96
2022-11-24T09:39:45.278Z,80.25
2022-11-24T09:45:04.753Z,80.32
2022-11-24T09:50:16.553Z,79.96
2022-11-24T09:55:29.291Z,79.66
2022-11-24T10:00:31.102Z,79.46
2022-11-24T10:05:35.847Z,79.56
2022-11-24T10:10:57.167Z,79.05
2022-11-24T10:16:15.891Z,78.98
2022-11-24T10:21:47.273Z,78.97
2022-11-24T10:27:00.623Z,78.93
2022-11-24T10:32:05.669Z,78.86
2022-11-24T10:37:40.437Z,78.23
2022-11-24T10:42:42.640Z,78.55
2022-11-24T10:47:45.362Z,78.07
2022-11-24T10:53:22.459Z,77.86
2022-11-24T10:58:38.700Z,78.02
2022-11-24T11:03:49.312Z,77.13
2022-11-24T11:09:10.611Z,77.65
2022-11-24T11:14:12.982Z,77.43
2022-11-24T11:19:54.400Z,76.83
2022-11-24T11:25:29.595Z,76.98
2022-11-24T11:35:52.626Z,76.50
2022-11-24T11:40:54.116Z,76.06
2022-11-24T11:46:17.653Z,75.50
2022-11-24T11:51:47.020Z,75.67
2022-11-24T11:56:56.296Z,74.81
2022-11-24T12:02:07.772Z,74.69
2022-11-24T12:07:25.828Z,73.92
2022-11-24T12:12:49.019Z,73.38
2022-11-24T12:18:55.871Z,73.39
2022-11-24T12:24:10.631Z,73.50
2022-11-24T12:29:23.206Z,72.76
2022-11-24T12:34:28.782Z,71.95
2022-11-24T12:39:49.531Z,72.18
2022-11-24T12:45:08.770Z,71.62
2022-11-24T12:50:15.760Z,71.30
2022-11-24T12:55:20.553Z,71.86
2022-11-24T13:00:28.281Z,70.97
2022-11-24T13:05:58.751Z,70.10
2022-11-24T13:11:34.640Z,70.18
2022-11-24T13:17:13.581Z,69.57
2022-11-24T13:22:16.203Z,69.26
2022-11-24T13:27:24.254Z,69.06
2022-11-24T13:32:31.690Z,68.56
2022-11-24T13:37:35.905Z,70.88
2022-11-24T13:43:12.758Z,69.58
2022-11-24T13:48:20.805Z,68.93
2022-11-24T13:53:41.190Z,68.95
2022-11-24T13:58:50.165Z,68.57
2022-11-24T14:04:28.493Z,68.65
2022-11-24T14:09:35.355Z,68.47
2022-11-24T14:14:37.052Z,69.13
2022-11-24T14:19:39.154Z,68.85
2022-11-24T14:24:45.127Z,68.61
2022-11-24T14:30:01.788Z,68.49
2022-11-24T14:35:22.627Z,68.31
2022-11-24T14:40:44.928Z,68.11
2022-11-24T14:45:57.740Z,67.71
2022-11-24T14:51:12.717Z,68.06
2022-11-24T14:56:32.552Z,67.50
2022-11-24T15:01:34.942Z,67.58
2022-11-24T15:06:36.683Z,67.49
2022-11-24T15:11:38.347Z,67.78
2022-11-24T15:16:39.947Z,67.59
2022-11-24T15:21:41.335Z,67.75
2022-11-24T15:26:43.674Z,67.67
2022-11-24T15:31:49.410Z,67.19
2022-11-24T15:36:53.899Z,67.34
2022-11-24T15:41:55.261Z,67.90
2022-11-24T15:46:56.668Z,67.88
2022-11-24T15:51:58.118Z,67.57
2022-11-24T15:56:59.666Z,67.65
2022-11-24T16:02:01.071Z,68.01
2022-11-24T16:07:03.748Z,68.51
2022-11-24T16:12:06.563Z,68.28
2022-11-24T16:17:07.926Z,68.39
2022-11-24T16:22:09.367Z,68.71
2022-11-24T16:27:10.821Z,68.61
2022-11-24T16:32:12.199Z,68.70
2022-11-24T16:37:13.589Z,68.98
2022-11-24T16:42:15.070Z,69.05
2022-11-24T16:47:16.572Z,69.33
2022-11-24T16:52:18.233Z,68.95
2022-11-24T16:57:19.734Z,69.20
2022-11-24T17:02:21.169Z,69.67
2022-11-24T17:07:22.635Z,69.63
2022-11-24T17:12:24.075Z,69.97
2022-11-24T17:17:25.558Z,70.42
2022-11-24T17:22:27.752Z,70.62
2022-11-24T17:27:29.469Z,71.11
2022-11-24T17:32:31.726Z,71.35
2022-11-24T17:37:33.077Z,71.18
2022-11-24T17:42:34.454Z,71.47
2022-11-24T17:47:35.793Z,71.32
2022-11-24T17:52:37.129Z,71.63
2022-11-24T17:57:38.515Z,71.69
2022-11-24T18:02:39.946Z,71.67
2022-11-24T18:07:41.430Z,72.00
2022-11-24T18:12:42.801Z,72.17
2022-11-24T18:17:44.168Z,72.01
2022-11-24T18:28:07.039Z,71.84
2022-11-24T18:33:08.361Z,72.03
2022-11-24T18:38:10.396Z,72.06
2022-11-24T18:43:11.773Z,72.15
2022-11-24T18:48:14.258Z,71.99
2022-11-24T18:53:15.615Z,72.59
2022-11-24T18:58:17.035Z,72.19
2022-11-24T19:03:18.453Z,72.47
2022-11-24T19:08:19.999Z,72.75
2022-11-24T19:13:21.362Z,72.72
2022-11-24T19:18:22.707Z,72.85
2022-11-24T19:23:24.237Z,72.86
2022-11-24T19:28:25.582Z,72.51
2022-11-24T19:33:29.360Z,72.85
2022-11-24T19:38:32.769Z,72.77
2022-11-24T19:43:34.544Z,73.09
2022-11-24T19:48:48.406Z,72.80
2022-11-24T19:53:49.790Z,72.84
2022-11-24T19:58:52.151Z,73.07
2022-11-24T20:04:00.947Z,73.50
2022-11-24T20:09:05.528Z,73.74
2022-11-24T20:14:08.159Z,73.68
2022-11-24T20:19:14.534Z,73.58
2022-11-24T20:24:21.473Z,73.60
2022-11-24T20:29:22.948Z,74.15
2022-11-24T20:34:24.942Z,73.85
2022-11-24T20:39:27.702Z,73.78
2022-11-24T20:44:29.868Z,73.53
2022-11-24T20:49:31.479Z,73.87
2022-11-24T20:54:33.614Z,74.40
2022-11-24T20:59:35.377Z,73.74
2022-11-24T21:04:37.336Z,73.85
2022-11-24T21:09:41.664Z,74.49
2022-11-24T21:14:43.167Z,74.40
2022-11-24T21:19:44.821Z,74.72
2022-11-24T21:24:46.422Z,75.17
2022-11-24T21:29:48.006Z,74.83
2022-11-24T21:34:49.466Z,74.78
2022-11-24T21:39:51.088Z,74.67
2022-11-24T21:44:52.758Z,74.02
2022-11-24T21:49:54.932Z,74.08
2022-11-24T21:54:56.528Z,73.90
2022-11-24T22:00:01.171Z,73.99
2022-11-24T22:05:02.756Z,74.00
2022-11-24T22:10:04.844Z,74.35
2022-11-24T22:15:06.712Z,74.21
2022-11-24T22:20:08.494Z,74.54
2022-11-24T22:25:09.844Z,74.07
2022-11-24T22:30:11.700Z,74.74
2022-11-24T22:35:13.023Z,74.72
2022-11-24T22:40:14.498Z,74.53
2022-11-24T22:45:16.180Z,74.40
2022-11-24T22:50:17.606Z,74.02
2022-11-24T22:55:19.260Z,74.12
2022-11-24T23:00:21.006Z,74.05
2022-11-24T23:05:22.351Z,73.68
2022-11-24T23:10:23.719Z,74.87
2022-11-24T23:15:25.131Z,74.80
2022-11-24T23:20:26.453Z,74.89
2022-11-24T23:25:27.905Z,74.10
2022-11-24T23:30:29.245Z,74.36
2022-11-24T23:35:30.595Z,74.10
2022-11-24T23:40:31.926Z,74.14
2022-11-24T23:45:33.321Z,74.17
2022-11-24T23:50:35.265Z,74.57
2022-11-24T23:55:36.634Z,74.15
